Time,TemperatureF,DewpointF,PressureIn,WindDirection,WindDirectionDegrees,WindSpeedMPH,WindSpeedGustMPH,Humidity,HourlyPrecipIn,Conditions,Clouds,dailyrainin,SoftwareType,DateUTC
2015-02-27 00:01:00,12.4,9.7,30.01,SSE,153,0.0,0.0,89,0.00,,,0.00,meteohub,2015-02-27 07:01:00,
2015-02-27 00:07:00,12.4,10.0,30.01,SSE,153,0.0,0.0,90,0.00,,,0.00,meteohub,2015-02-27 07:07:00,
2015-02-27 00:12:00,12.4,10.0,30.01,SSE,153,0.0,0.0,90,0.00,,,0.00,meteohub,2015-02-27 07:12:00,
2015-02-27 00:17:00,12.6,10.4,30.02,South,170,3.0,0.0,91,0.00,,,0.00,meteohub,2015-02-27 07:17:00,
2015-02-27 00:22:00,12.9,10.8,30.01,South,188,0.0,3.0,91,0.00,,,0.00,meteohub,2015-02-27 07:22:00,
2015-02-27 00:28:00,13.3,10.9,30.01,South,179,0.0,3.0,90,0.00,,,0.00,meteohub,2015-02-27 07:28:00,
2015-02-27 00:33:00,13.3,10.9,30.01,SSE,162,0.0,3.0,90,0.00,,,0.00,meteohub,2015-02-27 07:33:00,
2015-02-27 00:38:00,13.6,11.3,30.02,South,172,0.0,2.0,90,0.00,,,0.00,meteohub,2015-02-27 07:38:00,
2015-02-27 00:43:00,13.8,11.7,30.02,SSW,210,1.0,1.0,91,0.00,,,0.00,meteohub,2015-02-27 07:43:00,
2015-02-27 00:49:00,14.0,11.3,30.02,SE,145,1.0,0.0,89,0.00,,,0.00,meteohub,2015-02-27 07:49:00,
2015-02-27 00:54:00,14.2,11.5,30.02,SSE,161,1.0,2.0,89,0.00,,,0.00,meteohub,2015-02-27 07:54:00,
2015-02-27 00:59:00,13.8,10.9,30.02,SSE,167,1.0,3.0,88,0.00,,,0.00,meteohub,2015-02-27 07:59:00,
2015-02-27 01:04:00,13.8,11.5,30.02,SSE,164,1.0,3.0,90,0.00,,,0.00,meteohub,2015-02-27 08:04:00,
2015-02-27 01:10:00,13.8,11.1,30.02,SSE,152,1.0,3.0,89,0.00,,,0.00,meteohub,2015-02-27 08:10:00,
2015-02-27 01:15:00,14.2,11.8,30.02,SE,143,1.0,3.0,90,0.00,,,0.00,meteohub,2015-02-27 08:15:00,
2015-02-27 01:20:00,14.0,11.1,30.03,SSE,152,1.0,3.0,88,0.00,,,0.00,meteohub,2015-02-27 08:20:00,
2015-02-27 01:25:00,14.0,11.3,30.03,SSE,165,1.0,3.0,89,0.00,,,0.00,meteohub,2015-02-27 08:25:00,
2015-02-27 01:31:00,14.0,11.3,30.03,South,169,2.0,2.0,89,0.00,,,0.00,meteohub,2015-02-27 08:31:00,
2015-02-27 01:36:00,14.2,11.8,30.03,SW,236,0.0,3.0,90,0.00,,,0.00,meteohub,2015-02-27 08:36:00,
2015-02-27 01:41:00,14.4,12.0,30.03,SW,224,2.0,3.0,90,0.00,,,0.00,meteohub,2015-02-27 08:41:00,
2015-02-27 01:46:00,14.5,11.8,30.03,SSE,165,1.0,3.0,89,0.00,,,0.00,meteohub,2015-02-27 08:46:00,
2015-02-27 01:52:00,14.7,12.4,30.03,SSE,160,0.0,3.0,90,0.00,,,0.00,meteohub,2015-02-27 08:52:00,
2015-02-27 01:57:00,14.7,12.0,30.03,SSE,150,1.0,3.0,89,0.00,,,0.00,meteohub,2015-02-27 08:57:00,
2015-02-27 02:02:00,14.5,11.8,30.03,SSE,154,1.0,1.0,89,0.00,,,0.00,meteohub,2015-02-27 09:02:00,
2015-02-27 02:07:00,14.4,11.7,30.03,SSE,158,0.0,1.0,89,0.00,,,0.00,meteohub,2015-02-27 09:07:00,
2015-02-27 02:13:00,14.4,11.7,30.02,SSE,156,1.0,1.0,89,0.00,,,0.00,meteohub,2015-02-27 09:13:00,
2015-02-27 02:18:00,14.2,11.8,30.03,SE,146,1.0,1.0,90,0.00,,,0.00,meteohub,2015-02-27 09:18:00,
2015-02-27 02:23:00,14.4,12.0,30.02,SE,143,1.0,1.0,90,0.00,,,0.00,meteohub,2015-02-27 09:23:00,
2015-02-27 02:28:00,14.4,12.0,30.02,SSE,149,0.0,2.0,90,0.00,,,0.00,meteohub,2015-02-27 09:28:00,
2015-02-27 02:34:00,14.2,11.8,30.02,SSE,159,0.0,2.0,90,0.00,,,0.00,meteohub,2015-02-27 09:34:00,
2015-02-27 02:39:00,14.0,11.7,30.02,WSW,238,0.0,2.0,90,0.00,,,0.00,meteohub,2015-02-27 09:39:00,
2015-02-27 02:44:00,13.8,11.1,30.02,WSW,238,0.0,2.0,89,0.00,,,0.00,meteohub,2015-02-27 09:44:00,
2015-02-27 02:49:00,13.6,11.3,30.02,WSW,238,0.0,1.0,90,0.00,,,0.00,meteohub,2015-02-27 09:49:00,
2015-02-27 02:55:00,13.6,11.3,30.02,SW,232,0.0,1.0,90,0.00,,,0.00,meteohub,2015-02-27 09:55:00,
2015-02-27 03:00:00,13.5,11.1,30.02,SW,236,0.0,1.0,90,0.00,,,0.00,meteohub,2015-02-27 10:00:00,
2015-02-27 03:05:00,13.3,10.9,30.02,SSE,159,0.0,1.0,90,0.00,,,0.00,meteohub,2015-02-27 10:05:00,
2015-02-27 03:10:00,13.1,10.8,30.01,South,176,1.0,2.0,90,0.00,,,0.00,meteohub,2015-02-27 10:10:00,
2015-02-27 03:16:00,12.9,10.6,30.01,SSE,150,0.0,3.0,90,0.00,,,0.00,meteohub,2015-02-27 10:16:00,
2015-02-27 03:21:00,12.7,10.4,30.01,SSW,204,1.0,3.0,90,0.00,,,0.00,meteohub,2015-02-27 10:21:00,
2015-02-27 03:26:00,12.7,10.4,30.01,WSW,250,0.0,2.0,90,0.00,,,0.00,meteohub,2015-02-27 10:26:00,
2015-02-27 03:31:00,12.6,10.2,30.01,SSW,203,1.0,1.0,90,0.00,,,0.00,meteohub,2015-02-27 10:31:00,
2015-02-27 03:37:00,12.4,9.7,30.01,SSE,162,1.0,2.0,89,0.00,,,0.00,meteohub,2015-02-27 10:37:00,
2015-02-27 03:42:00,12.0,9.1,30.01,West,269,0.0,2.0,88,0.00,,,0.00,meteohub,2015-02-27 10:42:00,
2015-02-27 03:47:00,11.7,8.8,30.01,WSW,256,0.0,3.0,88,0.00,,,0.00,meteohub,2015-02-27 10:47:00,
2015-02-27 03:52:00,11.5,8.6,30.01,WSW,245,0.0,3.0,88,0.00,,,0.00,meteohub,2015-02-27 10:52:00,
2015-02-27 03:58:00,10.9,8.4,30.01,WSW,247,0.0,1.0,89,0.00,,,0.00,meteohub,2015-02-27 10:58:00,
2015-02-27 04:03:00,10.6,7.7,30.01,WSW,247,0.0,1.0,88,0.00,,,0.00,meteohub,2015-02-27 11:03:00,
2015-02-27 04:08:00,10.8,8.6,30.01,South,184,0.0,1.0,91,0.00,,,0.00,meteohub,2015-02-27 11:08:00,
2015-02-27 04:13:00,10.6,8.1,30.00,WSW,238,1.0,4.0,89,0.00,,,0.00,meteohub,2015-02-27 11:13:00,
2015-02-27 04:19:00,10.2,7.7,30.01,WSW,245,0.0,4.0,89,0.00,,,0.00,meteohub,2015-02-27 11:19:00,
2015-02-27 04:24:00,9.5,6.4,30.00,West,260,0.0,4.0,87,0.00,,,0.00,meteohub,2015-02-27 11:24:00,
2015-02-27 04:29:00,9.0,6.1,30.00,West,260,0.0,2.0,88,0.00,,,0.00,meteohub,2015-02-27 11:29:00,
2015-02-27 04:34:00,8.6,5.7,30.01,West,260,0.0,2.0,88,0.00,,,0.00,meteohub,2015-02-27 11:34:00,
2015-02-27 04:40:00,8.2,5.4,30.01,West,264,0.0,1.0,88,0.00,,,0.00,meteohub,2015-02-27 11:40:00,